Aeroporto :
LOGIN :

Iscrizione | Disclaimer

   EN    FR    IT 

 










Sommario :    VFR   VFR Marginale   IFR   IFR Intensivo   IFR Molto Intensivo
Visibilità : 
Base nubi : 
>= 8 km
>= 3000ft
5 / 8 km
1000 / 3000 ft
1500m / 5 km
500 / 1000 ft
800 / 1500m
200 / 500 ft
< 800m
< 200 ft
Simboli :   Temporali  Nebbia  Neve Forte  Precipitazioni Forti  Vento > 20 kt
SIGMETs :   Varie  Temporali  Ghiacco  Turbolenza  Onda orograficha  Ceneri Vulcaniche






- Altitudine del aeroporto : 1768 ft


LEHC - Huesca Pirineos

ULTIMO METAR :
  • 230700Z VRB02KT CAVOK 23/10 Q1022

METARs OBSOLETI :
  • 230630Z AUTO VRB01KT CAVOK 22/11 Q1022
  • 230600Z AUTO 00000KT CAVOK 21/11 Q1022
  • 230530Z AUTO VRB02KT CAVOK 17/11 Q1022
  • 230500Z AUTO VRB02KT CAVOK 16/10 Q1021
  • 230430Z AUTO 31003KT 290V350 CAVOK 15/10 Q1021
  • 230400Z AUTO 27005KT CAVOK 16/11 Q1021
  • 230330Z AUTO 27003KT CAVOK 17/11 Q1021
  • 230300Z AUTO VRB01KT CAVOK 18/10 Q1021
  • 230230Z AUTO 29005KT 280V040 CAVOK 20/10 Q1021

TAF TAF LEHC
Valido dal 23 a 03 ore il 24 a 03 ore UTC


230200Z 2303/2403 VRB04KT 9999 FEW030 TX37/2315Z TN19/2305Z
TEMPO 2312/2320 26010KT



MetMap, La meteo Aeronautica in un colpo d'occhio ! - Copyright ORBIFLY Dicembre 2007 - Disclaimer

ORBIFLY MET'MAP TEAM :

Programmazione e sviluppo : Alexandra Zaïnal
Concezione : Baudouin d'Aumeries
Supporto tecnico e logistico : Manuel Goepfert
Aiuto : Marc-Olivier Méhu
Aiuto per la traduzione : Arnaldo La Scala




FONTI E CREDITI :

   NOAA